Time;durP1;ratioP1;P1;durP2;ratioP2;P2;SDS_P1;SDS_P2;PMS_P1;PMS_P2;Temp;Humidity;BMP_temperature;BMP_pressure;BME280_temperature;BME280_humidity;BME280_pressure;Samples;Min_cycle;Max_cycle;Signal;HPM_P1;HPM_P2
2021/11/06 19:11:52;;;;;;;;;;;3.80;99.90;;;;;;5072383;28;19925;-95
2021/11/06 19:14:18;;;;;;;;;;;3.70;99.90;;;;;;5054002;28;19913;-96
2021/11/06 19:16:44;;;;;;;;;;;3.70;99.90;;;;;;5054068;28;19919;-96
2021/11/06 19:19:11;;;;;;;;;;;3.70;99.90;;;;;;5047741;28;19963;-96
2021/11/06 19:21:36;;;;;;;;;;;3.80;99.90;;;;;;5033878;28;19909;-96
2021/11/06 19:24:03;;;;;;;;;;;3.90;99.90;;;;;;5033926;28;19954;-96
2021/11/06 19:26:29;;;;;;;;;;;3.90;99.90;;;;;;5052015;28;20353;-95
2021/11/06 19:30:33;;;;;;;;;;;4.00;99.90;;;;;;5073160;28;19928;-95
2021/11/06 19:32:58;;;;;;;;;;;4.00;99.90;;;;;;5054278;28;19917;-96
2021/11/06 19:35:25;;;;;;;;;;;4.00;99.90;;;;;;5054084;28;19972;-96
2021/11/06 19:37:52;;;;;;;;;;;4.00;99.90;;;;;;5054180;28;19962;-95
2021/11/06 19:40:22;;;;;;;;;;;4.00;99.90;;;;;;5054300;28;19959;-95
2021/11/06 19:42:53;;;;;;;;;;;4.10;99.90;;;;;;5054517;28;19909;-96
2021/11/06 19:45:19;;;;;;;;;;;4.10;99.90;;;;;;5054009;28;19909;-95
2021/11/06 19:47:45;;;;;;;;;;;4.10;99.90;;;;;;5053796;28;19932;-96
2021/11/06 19:50:12;;;;;;;;;;;4.10;99.90;;;;;;5053689;28;19952;-94
2021/11/06 19:52:39;;;;;;;;;;;4.10;99.90;;;;;;5049360;28;19916;-96
2021/11/06 19:55:05;;;;;;;;;;;4.10;99.90;;;;;;5033774;28;19917;-94
2021/11/06 19:57:30;;;;;;;;;;;4.10;99.90;;;;;;5034497;28;19909;-96
2021/11/06 19:59:56;;;;;;;;;;;4.10;99.90;;;;;;5035899;28;19915;-95
2021/11/06 20:02:23;;;;;;;;;;;4.10;99.90;;;;;;5034116;28;19963;-96
2021/11/06 20:04:49;;;;;;;;;;;4.10;99.90;;;;;;5017452;28;19917;-95
2021/11/06 20:07:14;;;;;;;;;;;4.00;99.90;;;;;;5033292;28;19915;-95
2021/11/06 20:09:40;;;;;;;;;;;4.10;99.90;;;;;;5058700;28;19943;-95
2021/11/06 20:12:06;;;;;;;;;;;4.00;99.90;;;;;;5074007;28;20357;-96
2021/11/06 20:14:32;;;;;;;;;;;4.00;99.90;;;;;;5074356;28;19908;-95
2021/11/06 20:16:57;;;;;;;;;;;4.00;99.90;;;;;;5073940;28;19913;-95
2021/11/06 20:19:23;;;;;;;;;;;4.00;99.90;;;;;;5073919;28;20003;-96
2021/11/06 20:21:49;;;;;;;;;;;4.00;99.90;;;;;;5073781;28;19999;-95
2021/11/06 20:24:15;;;;;;;;;;;3.90;99.90;;;;;;5073967;28;19943;-94
2021/11/06 20:26:40;;;;;;;;;;;3.90;99.90;;;;;;5073834;28;19908;-96
2021/11/06 20:29:07;;;;;;;;;;;3.90;99.90;;;;;;5070187;28;20269;-96
2021/11/06 20:31:34;;;;;;;;;;;3.90;99.90;;;;;;5069880;28;20000;-95
2021/11/06 20:34:00;;;;;;;;;;;3.90;99.90;;;;;;5069702;28;19990;-95
2021/11/06 20:36:26;;;;;;;;;;;3.90;99.90;;;;;;5069281;28;19909;-96
2021/11/06 20:38:51;;;;;;;;;;;3.80;99.90;;;;;;5069402;28;19909;-94
2021/11/06 20:41:22;;;;;;;;;;;3.80;99.90;;;;;;5060710;28;20332;-94
2021/11/06 20:43:50;;;;;;;;;;;3.80;99.90;;;;;;5056973;28;19916;-96
2021/11/06 20:46:15;;;;;;;;;;;3.70;99.90;;;;;;5057193;28;20473;-94
2021/11/06 20:48:41;;;;;;;;;;;3.70;99.90;;;;;;5057537;28;19992;-95
2021/11/06 20:51:07;;;;;;;;;;;3.70;99.90;;;;;;5060135;28;19909;-95
2021/11/06 20:53:32;;;;;;;;;;;3.70;99.90;;;;;;5058365;28;19943;-94
2021/11/06 20:55:58;;;;;;;;;;;3.60;99.90;;;;;;5056165;28;19915;-95
2021/11/06 20:58:24;;;;;;;;;;;3.60;99.90;;;;;;5057833;28;20042;-96
2021/11/06 21:00:52;;;;;;;;;;;3.60;99.90;;;;;;5058476;28;19963;-95
2021/11/06 21:03:18;;;;;;;;;;;3.60;99.90;;;;;;5057192;28;20376;-96
2021/11/06 21:05:51;;;;;;;;;;;3.60;99.90;;;;;;5056271;28;19916;-95
2021/11/06 21:08:16;;;;;;;;;;;3.60;99.90;;;;;;5057024;28;19915;-95
2021/11/06 21:10:51;;;;;;;;;;;3.60;99.90;;;;;;5056203;28;19909;-94
2021/11/06 21:13:24;;;;;;;;;;;3.50;99.90;;;;;;5055188;28;19908;-93
2021/11/06 21:18:31;;;;;;;;;;;3.40;99.90;;;;;;5056603;28;19909;-94
2021/11/06 21:20:57;;;;;;;;;;;3.40;99.90;;;;;;5055056;28;19909;-92
2021/11/06 21:23:25;;;;;;;;;;;3.40;99.90;;;;;;5054961;28;20003;-94
2021/11/06 21:25:51;;;;;;;;;;;3.40;99.90;;;;;;5052667;28;19979;-95
2021/11/06 21:28:17;;;;;;;;;;;3.30;99.90;;;;;;5024357;28;20354;-93
2021/11/06 21:30:43;;;;;;;;;;;3.30;99.90;;;;;;5039053;28;20309;-93
2021/11/06 21:33:11;;;;;;;;;;;3.30;99.90;;;;;;5023750;28;19913;-96
2021/11/06 21:35:37;;;;;;;;;;;3.20;99.90;;;;;;5038961;28;19909;-92
2021/11/06 21:38:09;;;;;;;;;;;3.20;99.90;;;;;;5038475;28;19909;-93
2021/11/06 21:40:35;;;;;;;;;;;3.10;99.90;;;;;;5038161;28;19909;-91
2021/11/06 21:43:04;;;;;;;;;;;3.10;99.90;;;;;;5038141;28;20476;-93
2021/11/06 21:45:30;;;;;;;;;;;3.10;99.90;;;;;;5038288;28;19916;-92
2021/11/06 21:47:58;;;;;;;;;;;3.10;99.90;;;;;;5038155;28;19909;-91
2021/11/06 21:50:24;;;;;;;;;;;3.10;99.90;;;;;;5038188;28;20427;-92
2021/11/06 21:52:50;;;;;;;;;;;3.10;99.90;;;;;;5037189;28;19952;-92
2021/11/06 21:55:17;;;;;;;;;;;3.10;99.90;;;;;;5038143;28;19986;-93
2021/11/06 21:57:44;;;;;;;;;;;3.10;99.90;;;;;;5037956;28;19909;-92
2021/11/06 22:00:15;;;;;;;;;;;3.10;99.90;;;;;;5037814;28;19909;-92
2021/11/06 22:02:41;;;;;;;;;;;3.10;99.90;;;;;;5038011;28;19944;-94
